sensor_id;sensor_type;location;lat;lon;timestamp;P1;durP1;ratioP1;P2;durP2;ratioP2
68398;SDS011;56258;52.196;13.868;2022-11-02T00:01:50;3.33;;;0.50;;
68398;SDS011;56258;52.196;13.868;2022-11-02T00:04:17;3.75;;;0.60;;
68398;SDS011;56258;52.196;13.868;2022-11-02T00:06:44;3.40;;;0.57;;
68398;SDS011;56258;52.196;13.868;2022-11-02T00:09:10;3.22;;;0.60;;
68398;SDS011;56258;52.196;13.868;2022-11-02T00:11:37;3.22;;;0.50;;
68398;SDS011;56258;52.196;13.868;2022-11-02T00:14:03;2.78;;;0.50;;
68398;SDS011;56258;52.196;13.868;2022-11-02T00:16:30;3.13;;;0.52;;
68398;SDS011;56258;52.196;13.868;2022-11-02T00:18:58;3.67;;;0.50;;
68398;SDS011;56258;52.196;13.868;2022-11-02T00:21:26;3.20;;;0.50;;
68398;SDS011;56258;52.196;13.868;2022-11-02T00:23:54;3.45;;;0.50;;
68398;SDS011;56258;52.196;13.868;2022-11-02T00:26:23;2.70;;;0.50;;
68398;SDS011;56258;52.196;13.868;2022-11-02T00:28:51;2.67;;;0.50;;
68398;SDS011;56258;52.196;13.868;2022-11-02T00:31:18;3.00;;;0.50;;
68398;SDS011;56258;52.196;13.868;2022-11-02T00:33:44;3.00;;;0.52;;
68398;SDS011;56258;52.196;13.868;2022-11-02T00:36:11;4.03;;;0.50;;
68398;SDS011;56258;52.196;13.868;2022-11-02T00:38:38;2.85;;;0.50;;
68398;SDS011;56258;52.196;13.868;2022-11-02T00:41:05;3.65;;;0.55;;
68398;SDS011;56258;52.196;13.868;2022-11-02T00:43:31;3.20;;;0.50;;
68398;SDS011;56258;52.196;13.868;2022-11-02T00:45:58;3.28;;;0.60;;
68398;SDS011;56258;52.196;13.868;2022-11-02T00:48:25;3.15;;;0.50;;
68398;SDS011;56258;52.196;13.868;2022-11-02T00:50:51;3.17;;;0.60;;
68398;SDS011;56258;52.196;13.868;2022-11-02T00:53:18;3.65;;;0.47;;
68398;SDS011;56258;52.196;13.868;2022-11-02T00:55:44;2.58;;;0.50;;
68398;SDS011;56258;52.196;13.868;2022-11-02T00:58:12;2.63;;;0.40;;
68398;SDS011;56258;52.196;13.868;2022-11-02T01:00:39;4.03;;;0.70;;
68398;SDS011;56258;52.196;13.868;2022-11-02T01:03:06;3.05;;;0.47;;
68398;SDS011;56258;52.196;13.868;2022-11-02T01:05:33;2.92;;;0.50;;
68398;SDS011;56258;52.196;13.868;2022-11-02T01:07:59;3.10;;;0.50;;
68398;SDS011;56258;52.196;13.868;2022-11-02T01:10:26;3.00;;;0.40;;
68398;SDS011;56258;52.196;13.868;2022-11-02T01:12:53;2.83;;;0.50;;
68398;SDS011;56258;52.196;13.868;2022-11-02T01:15:19;3.45;;;0.60;;
68398;SDS011;56258;52.196;13.868;2022-11-02T01:17:46;2.42;;;0.40;;
68398;SDS011;56258;52.196;13.868;2022-11-02T01:20:12;3.10;;;0.50;;
68398;SDS011;56258;52.196;13.868;2022-11-02T01:22:39;2.80;;;0.55;;
68398;SDS011;56258;52.196;13.868;2022-11-02T01:25:06;3.30;;;0.50;;
68398;SDS011;56258;52.196;13.868;2022-11-02T01:27:33;3.25;;;0.60;;
68398;SDS011;56258;52.196;13.868;2022-11-02T01:29:59;3.65;;;0.55;;
68398;SDS011;56258;52.196;13.868;2022-11-02T01:32:28;2.75;;;0.40;;
68398;SDS011;56258;52.196;13.868;2022-11-02T01:34:55;2.70;;;0.45;;
68398;SDS011;56258;52.196;13.868;2022-11-02T01:37:22;2.78;;;0.50;;
68398;SDS011;56258;52.196;13.868;2022-11-02T01:39:48;3.05;;;0.55;;
68398;SDS011;56258;52.196;13.868;2022-11-02T01:42:18;3.13;;;0.52;;
68398;SDS011;56258;52.196;13.868;2022-11-02T01:44:47;2.78;;;0.45;;
68398;SDS011;56258;52.196;13.868;2022-11-02T01:47:18;2.97;;;0.50;;
68398;SDS011;56258;52.196;13.868;2022-11-02T01:49:52;3.30;;;0.50;;
68398;SDS011;56258;52.196;13.868;2022-11-02T01:52:27;4.15;;;0.57;;
68398;SDS011;56258;52.196;13.868;2022-11-02T01:55:04;2.67;;;0.40;;
68398;SDS011;56258;52.196;13.868;2022-11-02T01:57:36;2.95;;;0.50;;
68398;SDS011;56258;52.196;13.868;2022-11-02T02:00:09;2.85;;;0.40;;
68398;SDS011;56258;52.196;13.868;2022-11-02T02:02:38;3.33;;;0.65;;
68398;SDS011;56258;52.196;13.868;2022-11-02T02:05:11;2.97;;;0.43;;
68398;SDS011;56258;52.196;13.868;2022-11-02T02:07:39;2.63;;;0.50;;
68398;SDS011;56258;52.196;13.868;2022-11-02T02:10:06;2.72;;;0.40;;
68398;SDS011;56258;52.196;13.868;2022-11-02T02:12:34;2.72;;;0.40;;
68398;SDS011;56258;52.196;13.868;2022-11-02T02:15:04;3.13;;;0.50;;
68398;SDS011;56258;52.196;13.868;2022-11-02T02:17:37;3.03;;;0.50;;
68398;SDS011;56258;52.196;13.868;2022-11-02T02:28:46;2.97;;;0.50;;
68398;SDS011;56258;52.196;13.868;2022-11-02T02:31:31;2.78;;;0.50;;
68398;SDS011;56258;52.196;13.868;2022-11-02T02:34:33;3.00;;;0.40;;
68398;SDS011;56258;52.196;13.868;2022-11-02T02:37:18;3.15;;;0.50;;
68398;SDS011;56258;52.196;13.868;2022-11-02T02:39:56;2.90;;;0.50;;
68398;SDS011;56258;52.196;13.868;2022-11-02T02:42:33;3.67;;;0.60;;
68398;SDS011;56258;52.196;13.868;2022-11-02T02:45:16;2.92;;;0.50;;
68398;SDS011;56258;52.196;13.868;2022-11-02T02:48:00;3.35;;;0.50;;
68398;SDS011;56258;52.196;13.868;2022-11-02T02:50:33;3.22;;;0.45;;
68398;SDS011;56258;52.196;13.868;2022-11-02T02:53:06;3.03;;;0.50;;
68398;SDS011;56258;52.196;13.868;2022-11-02T02:55:39;3.20;;;0.40;;
68398;SDS011;56258;52.196;13.868;2022-11-02T02:58:13;3.60;;;0.50;;
68398;SDS011;56258;52.196;13.868;2022-11-02T03:00:43;2.78;;;0.40;;
68398;SDS011;56258;52.196;13.868;2022-11-02T03:03:14;2.58;;;0.40;;
68398;SDS011;56258;52.196;13.868;2022-11-02T03:05:54;3.95;;;0.43;;
68398;SDS011;56258;52.196;13.868;2022-11-02T03:08:28;2.42;;;0.40;;
68398;SDS011;56258;52.196;13.868;2022-11-02T03:19:36;3.20;;;0.40;;
68398;SDS011;56258;52.196;13.868;2022-11-02T03:22:09;2.78;;;0.45;;
68398;SDS011;56258;52.196;13.868;2022-11-02T03:24:54;3.88;;;0.50;;
68398;SDS011;56258;52.196;13.868;2022-11-02T03:27:33;3.10;;;0.40;;
68398;SDS011;56258;52.196;13.868;2022-11-02T03:30:25;4.63;;;0.50;;
68398;SDS011;56258;52.196;13.868;2022-11-02T03:33:06;4.40;;;0.52;;
68398;SDS011;56258;52.196;13.868;2022-11-02T03:35:42;3.17;;;0.50;;
68398;SDS011;56258;52.196;13.868;2022-11-02T03:38:23;3.67;;;0.40;;
68398;SDS011;56258;52.196;13.868;2022-11-02T03:40:57;2.97;;;0.50;;
68398;SDS011;56258;52.196;13.868;2022-11-02T03:43:26;3.28;;;0.43;;
68398;SDS011;56258;52.196;13.868;2022-11-02T03:45:54;3.67;;;0.47;;
68398;SDS011;56258;52.196;13.868;2022-11-02T03:48:28;3.33;;;0.50;;
68398;SDS011;56258;52.196;13.868;2022-11-02T03:51:02;3.78;;;0.40;;
68398;SDS011;56258;52.196;13.868;2022-11-02T03:53:51;3.13;;;0.40;;
68398;SDS011;56258;52.196;13.868;2022-11-02T03:56:28;2.72;;;0.40;;
68398;SDS011;56258;52.196;13.868;2022-11-02T03:59:06;2.92;;;0.40;;
68398;SDS011;56258;52.196;13.868;2022-11-02T04:01:40;2.67;;;0.40;;
68398;SDS011;56258;52.196;13.868;2022-11-02T04:04:10;3.42;;;0.40;;
68398;SDS011;56258;52.196;13.868;2022-11-02T04:06:37;2.65;;;0.43;;
68398;SDS011;56258;52.196;13.868;2022-11-02T04:09:06;3.30;;;0.40;;
68398;SDS011;56258;52.196;13.868;2022-11-02T04:11:34;3.90;;;0.50;;
68398;SDS011;56258;52.196;13.868;2022-11-02T04:14:20;2.95;;;0.40;;
68398;SDS011;56258;52.196;13.868;2022-11-02T04:17:06;3.70;;;0.40;;
68398;SDS011;56258;52.196;13.868;2022-11-02T04:19:53;2.00;;;0.30;;
68398;SDS011;56258;52.196;13.868;2022-11-02T04:22:20;2.83;;;0.43;;
68398;SDS011;56258;52.196;13.868;2022-11-02T04:25:05;3.38;;;0.40;;
68398;SDS011;56258;52.196;13.868;2022-11-02T04:27:44;4.07;;;0.40;;
68398;SDS011;56258;52.196;13.868;2022-11-02T04:30:14;2.95;;;0.50;;
68398;SDS011;56258;52.196;13.868;2022-11-02T04:32:42;4.35;;;0.40;;
68398;SDS011;56258;52.196;13.868;2022-11-02T04:35:30;3.08;;;0.40;;
68398;SDS011;56258;52.196;13.868;2022-11-02T04:37:57;3.20;;;0.40;;
68398;SDS011;56258;52.196;13.868;2022-11-02T04:40:42;3.53;;;0.40;;
68398;SDS011;56258;52.196;13.868;2022-11-02T04:43:09;2.80;;;0.30;;
68398;SDS011;56258;52.196;13.868;2022-11-02T04:45:35;2.90;;;0.45;;
68398;SDS011;56258;52.196;13.868;2022-11-02T04:48:03;3.22;;;0.40;;
68398;SDS011;56258;52.196;13.868;2022-11-02T04:50:32;2.55;;;0.40;;
68398;SDS011;56258;52.196;13.868;2022-11-02T04:53:00;2.70;;;0.38;;
68398;SDS011;56258;52.196;13.868;2022-11-02T04:55:28;2.72;;;0.40;;
68398;SDS011;56258;52.196;13.868;2022-11-02T04:57:55;2.67;;;0.47;;
68398;SDS011;56258;52.196;13.868;2022-11-02T05:00:22;2.50;;;0.40;;
68398;SDS011;56258;52.196;13.868;2022-11-02T05:02:49;2.83;;;0.30;;
68398;SDS011;56258;52.196;13.868;2022-11-02T05:05:16;2.70;;;0.40;;
68398;SDS011;56258;52.196;13.868;2022-11-02T05:07:43;3.42;;;0.40;;
68398;SDS011;56258;52.196;13.868;2022-11-02T05:10:10;4.75;;;0.30;;
68398;SDS011;56258;52.196;13.868;2022-11-02T05:12:37;3.03;;;0.40;;
68398;SDS011;56258;52.196;13.868;2022-11-02T05:15:04;3.25;;;0.50;;
68398;SDS011;56258;52.196;13.868;2022-11-02T05:17:31;2.72;;;0.40;;
68398;SDS011;56258;52.196;13.868;2022-11-02T05:19:57;3.75;;;0.50;;
68398;SDS011;56258;52.196;13.868;2022-11-02T05:22:24;2.60;;;0.30;;
68398;SDS011;56258;52.196;13.868;2022-11-02T05:24:51;3.38;;;0.40;;
68398;SDS011;56258;52.196;13.868;2022-11-02T05:27:17;1.83;;;0.30;;
68398;SDS011;56258;52.196;13.868;2022-11-02T05:29:44;2.50;;;0.40;;
68398;SDS011;56258;52.196;13.868;2022-11-02T05:32:10;3.17;;;0.50;;
68398;SDS011;56258;52.196;13.868;2022-11-02T05:34:37;3.42;;;0.30;;
68398;SDS011;56258;52.196;13.868;2022-11-02T05:37:03;3.22;;;0.40;;
68398;SDS011;56258;52.196;13.868;2022-11-02T05:39:30;4.10;;;0.40;;
68398;SDS011;56258;52.196;13.868;2022-11-02T05:41:57;2.42;;;0.40;;
68398;SDS011;56258;52.196;13.868;2022-11-02T05:44:23;3.25;;;0.50;;
68398;SDS011;56258;52.196;13.868;2022-11-02T05:46:50;3.10;;;0.40;;
68398;SDS011;56258;52.196;13.868;2022-11-02T05:49:16;3.72;;;0.40;;
68398;SDS011;56258;52.196;13.868;2022-11-02T05:51:43;2.72;;;0.40;;
68398;SDS011;56258;52.196;13.868;2022-11-02T05:54:10;4.35;;;0.50;;
68398;SDS011;56258;52.196;13.868;2022-11-02T05:56:36;3.25;;;0.40;;
68398;SDS011;56258;52.196;13.868;2022-11-02T05:59:03;2.17;;;0.30;;
68398;SDS011;56258;52.196;13.868;2022-11-02T06:01:29;2.63;;;0.40;;
68398;SDS011;56258;52.196;13.868;2022-11-02T06:03:56;3.28;;;0.45;;
68398;SDS011;56258;52.196;13.868;2022-11-02T06:06:22;2.95;;;0.47;;
68398;SDS011;56258;52.196;13.868;2022-11-02T06:08:49;2.03;;;0.40;;
68398;SDS011;56258;52.196;13.868;2022-11-02T06:11:16;2.60;;;0.40;;
68398;SDS011;56258;52.196;13.868;2022-11-02T06:13:42;3.28;;;0.40;;
68398;SDS011;56258;52.196;13.868;2022-11-02T06:16:09;2.22;;;0.40;;
68398;SDS011;56258;52.196;13.868;2022-11-02T06:18:37;3.10;;;0.40;;
68398;SDS011;56258;52.196;13.868;2022-11-02T06:21:04;2.90;;;0.40;;
68398;SDS011;56258;52.196;13.868;2022-11-02T06:23:31;2.65;;;0.40;;
68398;SDS011;56258;52.196;13.868;2022-11-02T06:25:58;4.03;;;0.50;;
68398;SDS011;56258;52.196;13.868;2022-11-02T06:28:26;2.63;;;0.40;;
68398;SDS011;56258;52.196;13.868;2022-11-02T06:30:53;2.95;;;0.40;;
68398;SDS011;56258;52.196;13.868;2022-11-02T06:33:20;2.35;;;0.40;;
68398;SDS011;56258;52.196;13.868;2022-11-02T06:35:48;2.63;;;0.35;;
68398;SDS011;56258;52.196;13.868;2022-11-02T06:38:16;2.38;;;0.30;;
68398;SDS011;56258;52.196;13.868;2022-11-02T06:40:51;2.05;;;0.30;;
68398;SDS011;56258;52.196;13.868;2022-11-02T06:43:21;2.47;;;0.40;;
68398;SDS011;56258;52.196;13.868;2022-11-02T06:45:48;2.60;;;0.40;;
68398;SDS011;56258;52.196;13.868;2022-11-02T06:48:15;2.25;;;0.40;;
68398;SDS011;56258;52.196;13.868;2022-11-02T06:50:41;2.28;;;0.40;;
68398;SDS011;56258;52.196;13.868;2022-11-02T06:53:08;2.42;;;0.30;;
68398;SDS011;56258;52.196;13.868;2022-11-02T06:55:35;2.58;;;0.40;;
68398;SDS011;56258;52.196;13.868;2022-11-02T06:58:02;3.00;;;0.40;;
68398;SDS011;56258;52.196;13.868;2022-11-02T07:00:28;2.03;;;0.30;;
68398;SDS011;56258;52.196;13.868;2022-11-02T07:03:02;2.38;;;0.43;;
68398;SDS011;56258;52.196;13.868;2022-11-02T07:05:33;3.45;;;0.38;;
68398;SDS011;56258;52.196;13.868;2022-11-02T07:08:00;3.28;;;0.45;;
68398;SDS011;56258;52.196;13.868;2022-11-02T07:10:27;4.13;;;0.45;;
68398;SDS011;56258;52.196;13.868;2022-11-02T07:12:55;3.40;;;0.50;;
68398;SDS011;56258;52.196;13.868;2022-11-02T07:15:24;6.97;;;0.50;;
68398;SDS011;56258;52.196;13.868;2022-11-02T07:17:51;4.95;;;0.50;;
68398;SDS011;56258;52.196;13.868;2022-11-02T07:20:18;3.67;;;0.40;;
68398;SDS011;56258;52.196;13.868;2022-11-02T07:22:55;4.43;;;0.30;;
68398;SDS011;56258;52.196;13.868;2022-11-02T07:25:24;3.25;;;0.45;;
68398;SDS011;56258;52.196;13.868;2022-11-02T07:27:52;3.08;;;0.40;;
68398;SDS011;56258;52.196;13.868;2022-11-02T07:30:19;4.28;;;0.50;;
68398;SDS011;56258;52.196;13.868;2022-11-02T07:32:46;2.65;;;0.40;;
68398;SDS011;56258;52.196;13.868;2022-11-02T07:35:13;5.60;;;0.32;;
68398;SDS011;56258;52.196;13.868;2022-11-02T07:37:41;3.65;;;0.65;;
68398;SDS011;56258;52.196;13.868;2022-11-02T07:40:08;3.97;;;0.55;;
68398;SDS011;56258;52.196;13.868;2022-11-02T07:42:43;3.92;;;0.40;;
68398;SDS011;56258;52.196;13.868;2022-11-02T07:45:12;5.75;;;0.60;;
68398;SDS011;56258;52.196;13.868;2022-11-02T07:47:45;3.05;;;0.40;;
68398;SDS011;56258;52.196;13.868;2022-11-02T07:50:13;4.50;;;0.30;;
68398;SDS011;56258;52.196;13.868;2022-11-02T07:52:49;3.33;;;0.38;;
68398;SDS011;56258;52.196;13.868;2022-11-02T07:55:17;2.85;;;0.50;;
68398;SDS011;56258;52.196;13.868;2022-11-02T07:57:53;4.22;;;0.40;;
68398;SDS011;56258;52.196;13.868;2022-11-02T08:00:24;2.75;;;0.30;;
68398;SDS011;56258;52.196;13.868;2022-11-02T08:02:55;3.25;;;0.40;;
68398;SDS011;56258;52.196;13.868;2022-11-02T08:05:23;3.42;;;0.40;;
68398;SDS011;56258;52.196;13.868;2022-11-02T08:07:57;2.38;;;0.32;;
68398;SDS011;56258;52.196;13.868;2022-11-02T08:10:25;3.80;;;0.60;;
68398;SDS011;56258;52.196;13.868;2022-11-02T08:12:53;4.07;;;0.40;;
68398;SDS011;56258;52.196;13.868;2022-11-02T08:15:20;2.58;;;0.30;;
68398;SDS011;56258;52.196;13.868;2022-11-02T08:17:47;2.83;;;0.40;;
68398;SDS011;56258;52.196;13.868;2022-11-02T08:20:13;5.60;;;0.60;;
68398;SDS011;56258;52.196;13.868;2022-11-02T08:22:40;3.15;;;0.40;;
68398;SDS011;56258;52.196;13.868;2022-11-02T08:25:07;4.93;;;0.40;;
68398;SDS011;56258;52.196;13.868;2022-11-02T08:27:33;3.40;;;0.38;;
68398;SDS011;56258;52.196;13.868;2022-11-02T08:30:00;3.05;;;0.40;;
68398;SDS011;56258;52.196;13.868;2022-11-02T08:32:26;3.97;;;0.40;;
68398;SDS011;56258;52.196;13.868;2022-11-02T08:34:53;3.03;;;0.32;;
68398;SDS011;56258;52.196;13.868;2022-11-02T08:37:20;3.20;;;0.38;;
68398;SDS011;56258;52.196;13.868;2022-11-02T08:39:46;3.67;;;0.40;;
68398;SDS011;56258;52.196;13.868;2022-11-02T08:42:13;2.38;;;0.40;;
68398;SDS011;56258;52.196;13.868;2022-11-02T08:44:39;4.75;;;0.40;;
68398;SDS011;56258;52.196;13.868;2022-11-02T08:47:08;2.67;;;0.40;;
68398;SDS011;56258;52.196;13.868;2022-11-02T08:49:35;2.47;;;0.30;;
68398;SDS011;56258;52.196;13.868;2022-11-02T08:52:01;2.30;;;0.30;;
68398;SDS011;56258;52.196;13.868;2022-11-02T08:54:28;2.70;;;0.40;;
68398;SDS011;56258;52.196;13.868;2022-11-02T08:56:54;3.70;;;0.50;;
68398;SDS011;56258;52.196;13.868;2022-11-02T08:59:21;4.43;;;0.40;;
68398;SDS011;56258;52.196;13.868;2022-11-02T09:01:47;2.13;;;0.30;;
68398;SDS011;56258;52.196;13.868;2022-11-02T09:04:14;3.50;;;0.40;;
68398;SDS011;56258;52.196;13.868;2022-11-02T09:06:41;3.65;;;0.47;;
68398;SDS011;56258;52.196;13.868;2022-11-02T09:09:07;2.47;;;0.30;;
68398;SDS011;56258;52.196;13.868;2022-11-02T09:11:34;3.13;;;0.40;;
68398;SDS011;56258;52.196;13.868;2022-11-02T09:14:01;2.93;;;0.40;;
68398;SDS011;56258;52.196;13.868;2022-11-02T09:16:28;2.92;;;0.50;;
68398;SDS011;56258;52.196;13.868;2022-11-02T09:18:54;2.55;;;0.32;;
68398;SDS011;56258;52.196;13.868;2022-11-02T09:21:21;2.53;;;0.40;;
68398;SDS011;56258;52.196;13.868;2022-11-02T09:23:47;3.10;;;0.40;;
68398;SDS011;56258;52.196;13.868;2022-11-02T09:26:14;4.43;;;0.40;;
68398;SDS011;56258;52.196;13.868;2022-11-02T09:28:41;2.65;;;0.30;;
68398;SDS011;56258;52.196;13.868;2022-11-02T09:31:08;3.00;;;0.40;;
68398;SDS011;56258;52.196;13.868;2022-11-02T09:33:37;2.00;;;0.40;;
68398;SDS011;56258;52.196;13.868;2022-11-02T09:36:04;3.15;;;0.40;;
68398;SDS011;56258;52.196;13.868;2022-11-02T09:38:31;3.75;;;0.50;;
68398;SDS011;56258;52.196;13.868;2022-11-02T09:46:37;2.33;;;0.30;;
68398;SDS011;56258;52.196;13.868;2022-11-02T09:49:15;3.20;;;0.40;;
68398;SDS011;56258;52.196;13.868;2022-11-02T09:51:45;2.85;;;0.40;;
68398;SDS011;56258;52.196;13.868;2022-11-02T09:54:28;3.15;;;0.30;;
68398;SDS011;56258;52.196;13.868;2022-11-02T09:57:10;3.17;;;0.40;;
68398;SDS011;56258;52.196;13.868;2022-11-02T09:59:40;3.13;;;0.30;;
68398;SDS011;56258;52.196;13.868;2022-11-02T10:11:06;2.72;;;0.50;;
68398;SDS011;56258;52.196;13.868;2022-11-02T10:13:49;2.50;;;0.40;;
68398;SDS011;56258;52.196;13.868;2022-11-02T10:16:27;3.35;;;0.60;;
68398;SDS011;56258;52.196;13.868;2022-11-02T10:18:59;3.00;;;0.60;;
68398;SDS011;56258;52.196;13.868;2022-11-02T10:21:31;2.75;;;0.60;;
68398;SDS011;56258;52.196;13.868;2022-11-02T10:24:01;3.28;;;0.57;;
68398;SDS011;56258;52.196;13.868;2022-11-02T10:26:36;2.53;;;0.52;;
68398;SDS011;56258;52.196;13.868;2022-11-02T10:31:41;2.90;;;0.40;;
68398;SDS011;56258;52.196;13.868;2022-11-02T10:37:02;3.05;;;0.40;;
68398;SDS011;56258;52.196;13.868;2022-11-02T10:45:22;3.00;;;0.30;;
68398;SDS011;56258;52.196;13.868;2022-11-02T10:51:07;3.15;;;0.30;;
68398;SDS011;56258;52.196;13.868;2022-11-02T10:53:38;3.03;;;0.30;;
68398;SDS011;56258;52.196;13.868;2022-11-02T10:56:20;2.40;;;0.30;;
68398;SDS011;56258;52.196;13.868;2022-11-02T11:01:24;3.72;;;0.40;;
68398;SDS011;56258;52.196;13.868;2022-11-02T11:06:22;2.70;;;0.30;;
68398;SDS011;56258;52.196;13.868;2022-11-02T11:08:51;2.22;;;0.30;;
68398;SDS011;56258;52.196;13.868;2022-11-02T11:11:26;3.37;;;0.40;;
68398;SDS011;56258;52.196;13.868;2022-11-02T11:14:14;4.32;;;0.50;;
68398;SDS011;56258;52.196;13.868;2022-11-02T11:17:03;2.97;;;0.30;;
68398;SDS011;56258;52.196;13.868;2022-11-02T11:20:03;3.28;;;0.28;;
68398;SDS011;56258;52.196;13.868;2022-11-02T11:22:36;2.80;;;0.30;;
68398;SDS011;56258;52.196;13.868;2022-11-02T11:27:47;2.75;;;0.40;;
68398;SDS011;56258;52.196;13.868;2022-11-02T11:30:23;3.25;;;0.40;;
68398;SDS011;56258;52.196;13.868;2022-11-02T11:33:14;2.97;;;0.30;;
68398;SDS011;56258;52.196;13.868;2022-11-02T11:35:46;3.25;;;0.30;;
68398;SDS011;56258;52.196;13.868;2022-11-02T11:38:16;3.42;;;0.50;;
68398;SDS011;56258;52.196;13.868;2022-11-02T11:40:48;2.20;;;0.30;;
68398;SDS011;56258;52.196;13.868;2022-11-02T11:43:20;2.25;;;0.30;;
68398;SDS011;56258;52.196;13.868;2022-11-02T11:45:58;2.28;;;0.30;;
68398;SDS011;56258;52.196;13.868;2022-11-02T11:56:50;3.80;;;0.50;;
68398;SDS011;56258;52.196;13.868;2022-11-02T12:01:57;3.03;;;0.40;;
68398;SDS011;56258;52.196;13.868;2022-11-02T12:04:34;3.65;;;0.35;;
68398;SDS011;56258;52.196;13.868;2022-11-02T12:07:06;3.75;;;0.40;;
68398;SDS011;56258;52.196;13.868;2022-11-02T12:12:33;4.22;;;0.32;;
68398;SDS011;56258;52.196;13.868;2022-11-02T12:26:07;2.30;;;0.30;;
68398;SDS011;56258;52.196;13.868;2022-11-02T12:28:57;2.63;;;0.35;;
68398;SDS011;56258;52.196;13.868;2022-11-02T12:31:43;2.65;;;0.32;;
68398;SDS011;56258;52.196;13.868;2022-11-02T12:34:20;3.45;;;0.40;;
68398;SDS011;56258;52.196;13.868;2022-11-02T12:42:35;2.47;;;0.30;;
68398;SDS011;56258;52.196;13.868;2022-11-02T12:45:24;2.97;;;0.30;;
68398;SDS011;56258;52.196;13.868;2022-11-02T12:48:03;2.80;;;0.40;;
68398;SDS011;56258;52.196;13.868;2022-11-02T12:54:06;4.22;;;0.40;;
68398;SDS011;56258;52.196;13.868;2022-11-02T12:56:18;3.13;;;0.30;;
68398;SDS011;56258;52.196;13.868;2022-11-02T12:58:52;1.90;;;0.30;;
68398;SDS011;56258;52.196;13.868;2022-11-02T13:01:21;2.67;;;0.30;;
68398;SDS011;56258;52.196;13.868;2022-11-02T13:04:00;3.72;;;0.30;;
68398;SDS011;56258;52.196;13.868;2022-11-02T13:06:41;2.42;;;0.30;;
68398;SDS011;56258;52.196;13.868;2022-11-02T13:12:02;3.08;;;0.30;;
68398;SDS011;56258;52.196;13.868;2022-11-02T13:14:41;2.90;;;0.30;;
68398;SDS011;56258;52.196;13.868;2022-11-02T13:17:16;2.63;;;0.30;;
68398;SDS011;56258;52.196;13.868;2022-11-02T13:19:52;2.72;;;0.30;;
68398;SDS011;56258;52.196;13.868;2022-11-02T13:22:24;1.88;;;0.30;;
68398;SDS011;56258;52.196;13.868;2022-11-02T13:25:00;2.90;;;0.25;;
68398;SDS011;56258;52.196;13.868;2022-11-02T13:27:33;3.60;;;0.30;;
68398;SDS011;56258;52.196;13.868;2022-11-02T13:30:12;2.42;;;0.22;;
68398;SDS011;56258;52.196;13.868;2022-11-02T13:35:13;2.13;;;0.30;;
68398;SDS011;56258;52.196;13.868;2022-11-02T13:37:42;2.20;;;0.30;;
68398;SDS011;56258;52.196;13.868;2022-11-02T13:40:23;1.90;;;0.30;;
68398;SDS011;56258;52.196;13.868;2022-11-02T13:48:46;2.58;;;0.30;;
68398;SDS011;56258;52.196;13.868;2022-11-02T13:54:00;2.58;;;0.30;;
68398;SDS011;56258;52.196;13.868;2022-11-02T13:56:30;2.88;;;0.40;;
68398;SDS011;56258;52.196;13.868;2022-11-02T13:59:03;2.05;;;0.30;;
68398;SDS011;56258;52.196;13.868;2022-11-02T14:01:34;2.45;;;0.30;;
68398;SDS011;56258;52.196;13.868;2022-11-02T14:04:06;2.17;;;0.20;;
68398;SDS011;56258;52.196;13.868;2022-11-02T14:06:46;2.58;;;0.30;;
68398;SDS011;56258;52.196;13.868;2022-11-02T14:09:19;1.67;;;0.20;;
68398;SDS011;56258;52.196;13.868;2022-11-02T14:11:50;2.15;;;0.30;;
68398;SDS011;56258;52.196;13.868;2022-11-02T14:14:35;4.07;;;0.30;;
68398;SDS011;56258;52.196;13.868;2022-11-02T14:17:17;1.70;;;0.20;;
68398;SDS011;56258;52.196;13.868;2022-11-02T14:22:14;2.17;;;0.20;;
68398;SDS011;56258;52.196;13.868;2022-11-02T14:40:19;3.13;;;0.30;;
68398;SDS011;56258;52.196;13.868;2022-11-02T14:48:45;2.65;;;0.30;;
68398;SDS011;56258;52.196;13.868;2022-11-02T14:51:25;2.25;;;0.20;;
68398;SDS011;56258;52.196;13.868;2022-11-02T14:59:56;2.15;;;0.30;;
68398;SDS011;56258;52.196;13.868;2022-11-02T15:02:11;2.53;;;0.30;;
68398;SDS011;56258;52.196;13.868;2022-11-02T15:04:53;2.88;;;0.20;;
68398;SDS011;56258;52.196;13.868;2022-11-02T15:07:25;1.95;;;0.20;;
68398;SDS011;56258;52.196;13.868;2022-11-02T15:09:57;1.90;;;0.20;;
68398;SDS011;56258;52.196;13.868;2022-11-02T15:12:34;2.30;;;0.30;;
68398;SDS011;56258;52.196;13.868;2022-11-02T15:25:35;2.58;;;0.30;;
68398;SDS011;56258;52.196;13.868;2022-11-02T15:28:06;1.48;;;0.25;;
68398;SDS011;56258;52.196;13.868;2022-11-02T15:30:39;4.00;;;0.30;;
68398;SDS011;56258;52.196;13.868;2022-11-02T15:33:15;2.30;;;0.30;;
68398;SDS011;56258;52.196;13.868;2022-11-02T15:36:04;2.65;;;0.30;;
68398;SDS011;56258;52.196;13.868;2022-11-02T15:38:33;1.40;;;0.17;;
68398;SDS011;56258;52.196;13.868;2022-11-02T15:44:05;2.10;;;0.20;;
68398;SDS011;56258;52.196;13.868;2022-11-02T15:58:20;2.53;;;0.30;;
68398;SDS011;56258;52.196;13.868;2022-11-02T16:01:09;3.83;;;0.50;;
68398;SDS011;56258;52.196;13.868;2022-11-02T16:03:43;2.25;;;0.20;;
68398;SDS011;56258;52.196;13.868;2022-11-02T16:06:12;2.15;;;0.30;;
68398;SDS011;56258;52.196;13.868;2022-11-02T16:08:39;1.50;;;0.20;;
68398;SDS011;56258;52.196;13.868;2022-11-02T16:11:13;2.50;;;0.30;;
68398;SDS011;56258;52.196;13.868;2022-11-02T16:13:44;2.22;;;0.20;;
68398;SDS011;56258;52.196;13.868;2022-11-02T16:16:31;2.00;;;0.22;;
68398;SDS011;56258;52.196;13.868;2022-11-02T16:19:01;1.48;;;0.20;;
68398;SDS011;56258;52.196;13.868;2022-11-02T16:21:28;2.22;;;0.30;;
68398;SDS011;56258;52.196;13.868;2022-11-02T16:23:55;3.38;;;0.30;;
68398;SDS011;56258;52.196;13.868;2022-11-02T16:26:24;3.47;;;0.20;;
68398;SDS011;56258;52.196;13.868;2022-11-02T16:28:53;2.03;;;0.20;;
68398;SDS011;56258;52.196;13.868;2022-11-02T16:31:22;1.70;;;0.20;;
68398;SDS011;56258;52.196;13.868;2022-11-02T16:33:56;2.83;;;0.40;;
68398;SDS011;56258;52.196;13.868;2022-11-02T16:36:28;2.85;;;0.55;;
68398;SDS011;56258;52.196;13.868;2022-11-02T16:39:06;4.07;;;0.28;;
68398;SDS011;56258;52.196;13.868;2022-11-02T16:41:48;1.73;;;0.20;;
68398;SDS011;56258;52.196;13.868;2022-11-02T16:44:24;2.03;;;0.20;;
68398;SDS011;56258;52.196;13.868;2022-11-02T16:52:17;2.53;;;0.20;;
68398;SDS011;56258;52.196;13.868;2022-11-02T16:54:46;6.15;;;0.30;;
68398;SDS011;56258;52.196;13.868;2022-11-02T16:57:23;2.67;;;0.20;;
68398;SDS011;56258;52.196;13.868;2022-11-02T16:59:56;2.00;;;0.20;;
68398;SDS011;56258;52.196;13.868;2022-11-02T17:02:29;1.60;;;0.20;;
68398;SDS011;56258;52.196;13.868;2022-11-02T17:05:00;2.08;;;0.30;;
68398;SDS011;56258;52.196;13.868;2022-11-02T17:07:37;2.40;;;0.30;;
68398;SDS011;56258;52.196;13.868;2022-11-02T17:10:06;2.15;;;0.20;;
68398;SDS011;56258;52.196;13.868;2022-11-02T17:12:35;1.70;;;0.20;;
68398;SDS011;56258;52.196;13.868;2022-11-02T17:15:14;1.65;;;0.20;;
68398;SDS011;56258;52.196;13.868;2022-11-02T17:17:44;2.60;;;0.30;;
68398;SDS011;56258;52.196;13.868;2022-11-02T17:23:01;3.55;;;0.30;;
68398;SDS011;56258;52.196;13.868;2022-11-02T17:25:30;1.42;;;0.20;;
68398;SDS011;56258;52.196;13.868;2022-11-02T17:27:59;2.00;;;0.20;;
68398;SDS011;56258;52.196;13.868;2022-11-02T17:30:46;2.50;;;0.20;;
68398;SDS011;56258;52.196;13.868;2022-11-02T17:35:46;2.90;;;0.20;;
68398;SDS011;56258;52.196;13.868;2022-11-02T17:38:14;1.58;;;0.20;;
68398;SDS011;56258;52.196;13.868;2022-11-02T17:40:41;2.33;;;0.30;;
68398;SDS011;56258;52.196;13.868;2022-11-02T17:43:08;2.08;;;0.20;;
68398;SDS011;56258;52.196;13.868;2022-11-02T17:45:35;2.88;;;0.30;;